Time;durP1;ratioP1;P1;durP2;ratioP2;P2;SDS_P1;SDS_P2;PMS_P1;PMS_P2;Temp;Humidity;BMP_temperature;BMP_pressure;BME280_temperature;BME280_humidity;BME280_pressure;Samples;Min_cycle;Max_cycle;Signal;HPM_P1;HPM_P2
2023/03/14 00:00:10;;;;;;;10.70;3.70;;;;;;;;;;110634;1275;22386;-72
2023/03/14 00:02:57;;;;;;;11.40;3.70;;;;;;;;;;110626;1275;22298;-72
2023/03/14 00:05:24;;;;;;;11.50;3.90;;;;;;;;;;110617;1275;21791;-72
2023/03/14 00:07:51;;;;;;;13.10;3.70;;;;;;;;;;110638;1253;22170;-72
2023/03/14 00:10:18;;;;;;;8.80;3.40;;;;;;;;;;110611;1276;22307;-71
2023/03/14 00:12:44;;;;;;;13.10;3.70;;;;;;;;;;110612;1276;22201;-72
2023/03/14 00:15:12;;;;;;;10.40;3.90;;;;;;;;;;110661;1276;22883;-71
2023/03/14 00:17:38;;;;;;;12.50;3.50;;;;;;;;;;110645;1275;22105;-73
2023/03/14 00:20:10;;;;;;;14.10;4.90;;;;;;;;;;110659;1254;22646;-72
2023/03/14 00:22:38;;;;;;;11.10;4.10;;;;;;;;;;110487;1275;22400;-72
2023/03/14 00:25:06;;;;;;;10.60;3.60;;;;;;;;;;110657;1256;22112;-73
2023/03/14 00:27:33;;;;;;;7.80;2.60;;;;;;;;;;110603;1275;22443;-72
2023/03/14 00:30:00;;;;;;;8.20;2.60;;;;;;;;;;110705;1252;22091;-72
2023/03/14 00:32:27;;;;;;;8.10;3.20;;;;;;;;;;110507;1276;22743;-72
2023/03/14 00:34:54;;;;;;;8.80;2.90;;;;;;;;;;110643;1276;22430;-71
2023/03/14 00:37:20;;;;;;;9.50;3.00;;;;;;;;;;110307;1272;22168;-72
2023/03/14 00:39:47;;;;;;;8.70;3.10;;;;;;;;;;110565;1267;23023;-73
2023/03/14 00:42:14;;;;;;;11.00;3.20;;;;;;;;;;110591;1276;22898;-72
2023/03/14 00:44:41;;;;;;;10.20;3.60;;;;;;;;;;110622;1276;22166;-75
2023/03/14 00:47:08;;;;;;;9.80;3.50;;;;;;;;;;110655;1276;22184;-72
2023/03/14 00:49:34;;;;;;;10.80;3.80;;;;;;;;;;110578;1257;22164;-72
2023/03/14 00:52:01;;;;;;;13.60;3.70;;;;;;;;;;110428;1277;22175;-72
2023/03/14 00:54:28;;;;;;;10.20;3.80;;;;;;;;;;110468;1266;22099;-72
2023/03/14 00:56:55;;;;;;;9.30;3.60;;;;;;;;;;110448;1277;22286;-72
2023/03/14 00:59:22;;;;;;;11.10;3.80;;;;;;;;;;110456;1261;22100;-72
2023/03/14 01:01:49;;;;;;;11.10;4.00;;;;;;;;;;110642;1276;22133;-72
2023/03/14 01:04:16;;;;;;;12.10;4.00;;;;;;;;;;110671;1276;22103;-72
2023/03/14 01:06:42;;;;;;;10.10;3.70;;;;;;;;;;110653;1276;22118;-73
2023/03/14 01:09:11;;;;;;;10.20;3.40;;;;;;;;;;110563;1254;22139;-72
2023/03/14 01:11:37;;;;;;;9.90;3.20;;;;;;;;;;110381;1277;22115;-72
2023/03/14 01:14:04;;;;;;;8.60;3.50;;;;;;;;;;110410;1277;22882;-72
2023/03/14 01:16:32;;;;;;;9.90;3.70;;;;;;;;;;110449;1277;22116;-73
2023/03/14 01:19:01;;;;;;;10.50;3.80;;;;;;;;;;110367;1276;22363;-73
2023/03/14 01:21:30;;;;;;;12.00;3.80;;;;;;;;;;110301;1256;22119;-75
2023/03/14 01:23:57;;;;;;;9.80;3.80;;;;;;;;;;110609;1276;22422;-73
2023/03/14 01:26:25;;;;;;;9.80;4.00;;;;;;;;;;110492;1276;22120;-72
2023/03/14 01:28:53;;;;;;;8.80;3.40;;;;;;;;;;110322;1276;22393;-73
2023/03/14 01:31:20;;;;;;;10.80;3.60;;;;;;;;;;110755;1255;22123;-73
2023/03/14 01:33:46;;;;;;;10.40;3.60;;;;;;;;;;110464;1277;22112;-73
2023/03/14 01:36:13;;;;;;;9.50;3.70;;;;;;;;;;110468;1277;22774;-73
2023/03/14 01:38:40;;;;;;;10.80;3.50;;;;;;;;;;110394;1277;22820;-81
2023/03/14 01:41:11;;;;;;;9.40;3.20;;;;;;;;;;110692;1259;22576;-73
2023/03/14 01:43:38;;;;;;;9.20;3.80;;;;;;;;;;110533;1276;22867;-73
2023/03/14 01:46:04;;;;;;;9.00;3.60;;;;;;;;;;110474;1276;22138;-73
2023/03/14 01:48:40;;;;;;;10.20;4.00;;;;;;;;;;110335;1276;22130;-72
2023/03/14 01:51:09;;;;;;;10.60;4.10;;;;;;;;;;110590;1254;22119;-73
2023/03/14 01:53:39;;;;;;;12.60;4.60;;;;;;;;;;110198;1277;22088;-73
2023/03/14 01:56:07;;;;;;;13.50;4.30;;;;;;;;;;110186;1277;22285;-73
2023/03/14 01:58:36;;;;;;;12.20;4.30;;;;;;;;;;110328;1277;22143;-72
2023/03/14 02:01:04;;;;;;;11.80;3.80;;;;;;;;;;110643;1257;22184;-72
2023/03/14 02:03:32;;;;;;;11.60;4.00;;;;;;;;;;110424;1276;22769;-72
2023/03/14 02:06:03;;;;;;;10.90;3.60;;;;;;;;;;110447;1276;22124;-72
2023/03/14 02:08:30;;;;;;;11.40;3.30;;;;;;;;;;110437;1276;22995;-72
2023/03/14 02:11:01;;;;;;;9.00;2.90;;;;;;;;;;110476;1256;22579;-72
2023/03/14 02:13:46;;;;;;;7.80;3.10;;;;;;;;;;110308;1277;22143;-72
2023/03/14 02:16:31;;;;;;;8.30;3.10;;;;;;;;;;110414;1277;22150;-72
2023/03/14 02:19:17;;;;;;;7.10;2.90;;;;;;;;;;110216;1277;22116;-72
2023/03/14 02:22:05;;;;;;;7.80;2.80;;;;;;;;;;110449;1259;22296;-72
2023/03/14 02:24:40;;;;;;;7.50;2.90;;;;;;;;;;110421;1276;22123;-72
2023/03/14 02:27:12;;;;;;;7.70;2.70;;;;;;;;;;110418;1276;22096;-71
2023/03/14 02:29:46;;;;;;;8.90;3.10;;;;;;;;;;110403;1276;22366;-72
2023/03/14 02:32:14;;;;;;;7.00;2.40;;;;;;;;;;110581;1256;22113;-72
2023/03/14 02:34:42;;;;;;;10.50;2.40;;;;;;;;;;110413;1277;22108;-74
2023/03/14 02:37:10;;;;;;;6.00;2.00;;;;;;;;;;110431;1277;22170;-72
2023/03/14 02:39:39;;;;;;;7.30;2.70;;;;;;;;;;110424;1277;22114;-72
2023/03/14 02:42:06;;;;;;;6.60;2.30;;;;;;;;;;110587;1259;22125;-73
2023/03/14 02:44:35;;;;;;;7.60;2.50;;;;;;;;;;110342;1277;22125;-73
2023/03/14 02:47:03;;;;;;;8.80;3.20;;;;;;;;;;110415;1277;22393;-72
2023/03/14 02:49:31;;;;;;;7.20;2.70;;;;;;;;;;110404;1277;22131;-72
2023/03/14 02:51:58;;;;;;;6.60;2.40;;;;;;;;;;110441;1256;23048;-72
2023/03/14 02:54:25;;;;;;;8.10;2.80;;;;;;;;;;110285;1278;22580;-72
2023/03/14 02:56:52;;;;;;;8.90;2.80;;;;;;;;;;110261;1278;22424;-73
2023/03/14 02:59:19;;;;;;;9.00;2.70;;;;;;;;;;110158;1278;22187;-72
2023/03/14 03:01:50;;;;;;;8.50;2.90;;;;;;;;;;110249;1260;22761;-73
2023/03/14 03:04:16;;;;;;;8.80;2.90;;;;;;;;;;110403;1277;22179;-72
2023/03/14 03:06:46;;;;;;;7.40;2.60;;;;;;;;;;110470;1277;22211;-72
2023/03/14 03:09:13;;;;;;;9.70;3.00;;;;;;;;;;110378;1277;22097;-72
2023/03/14 03:11:39;;;;;;;8.00;2.80;;;;;;;;;;110460;1255;22135;-72
2023/03/14 03:14:06;;;;;;;8.50;2.40;;;;;;;;;;110142;1278;22922;-72
2023/03/14 03:16:33;;;;;;;6.50;2.10;;;;;;;;;;110165;1278;22118;-72
2023/03/14 03:19:00;;;;;;;6.40;2.00;;;;;;;;;;110282;1278;22765;-72
2023/03/14 03:21:27;;;;;;;7.10;1.90;;;;;;;;;;110381;1278;22381;-72
2023/03/14 03:23:53;;;;;;;7.10;2.50;;;;;;;;;;110185;1271;22126;-72
2023/03/14 03:26:20;;;;;;;7.40;2.40;;;;;;;;;;110389;1277;22178;-73
2023/03/14 03:28:49;;;;;;;8.10;2.50;;;;;;;;;;110392;1278;22161;-72
2023/03/14 03:31:16;;;;;;;7.60;2.20;;;;;;;;;;110398;1277;22119;-72
2023/03/14 03:33:43;;;;;;;6.80;2.40;;;;;;;;;;110403;1262;22181;-72
2023/03/14 03:36:10;;;;;;;6.40;2.40;;;;;;;;;;110384;1278;22097;-73
2023/03/14 03:38:39;;;;;;;7.30;2.20;;;;;;;;;;110154;1278;22137;-73
2023/03/14 03:41:06;;;;;;;8.30;2.30;;;;;;;;;;110393;1278;22311;-72
2023/03/14 03:43:32;;;;;;;6.90;2.60;;;;;;;;;;110316;1259;22193;-72
2023/03/14 03:46:04;;;;;;;7.20;2.10;;;;;;;;;;110316;1278;22756;-72
2023/03/14 03:48:31;;;;;;;7.90;2.30;;;;;;;;;;110430;1278;21935;-72
2023/03/14 03:50:58;;;;;;;6.50;2.30;;;;;;;;;;110160;1277;22228;-73
2023/03/14 03:53:25;;;;;;;8.00;2.50;;;;;;;;;;110338;1258;22990;-75
2023/03/14 03:55:51;;;;;;;7.40;2.50;;;;;;;;;;110184;1279;22122;-72
2023/03/14 03:58:18;;;;;;;7.20;2.40;;;;;;;;;;110210;1278;22096;-72
2023/03/14 04:00:45;;;;;;;6.70;2.70;;;;;;;;;;110195;1278;22145;-72
2023/03/14 04:03:12;;;;;;;7.90;2.50;;;;;;;;;;110298;1260;22124;-72
2023/03/14 04:05:38;;;;;;;7.60;2.50;;;;;;;;;;110346;1277;22367;-72
2023/03/14 04:08:09;;;;;;;7.60;2.70;;;;;;;;;;110338;1278;22138;-73
2023/03/14 04:10:36;;;;;;;7.90;2.90;;;;;;;;;;110452;1277;22228;-72
2023/03/14 04:13:19;;;;;;;7.60;2.70;;;;;;;;;;110202;1262;22327;-72
2023/03/14 04:15:51;;;;;;;6.80;2.40;;;;;;;;;;110212;1279;22293;-72
2023/03/14 04:18:24;;;;;;;6.60;2.50;;;;;;;;;;110075;1278;22094;-76
2023/03/14 04:20:54;;;;;;;7.30;2.30;;;;;;;;;;110197;1278;22139;-72
2023/03/14 04:23:24;;;;;;;9.00;2.70;;;;;;;;;;110251;1270;22177;-72
2023/03/14 04:25:51;;;;;;;7.20;2.40;;;;;;;;;;110351;1277;22033;-72
2023/03/14 04:28:18;;;;;;;6.60;2.60;;;;;;;;;;110295;1277;22960;-72
2023/03/14 04:30:45;;;;;;;7.80;2.50;;;;;;;;;;110306;1278;22888;-72
2023/03/14 04:33:19;;;;;;;6.50;2.40;;;;;;;;;;110364;1255;22134;-72
2023/03/14 04:35:55;;;;;;;8.80;2.50;;;;;;;;;;110179;1279;22121;-72
2023/03/14 04:38:22;;;;;;;7.30;2.60;;;;;;;;;;110162;1278;22415;-72
2023/03/14 04:40:49;;;;;;;7.70;2.60;;;;;;;;;;110148;1278;22088;-72
2023/03/14 04:43:17;;;;;;;8.90;3.40;;;;;;;;;;110222;1256;22146;-72
2023/03/14 04:45:49;;;;;;;9.30;3.10;;;;;;;;;;110200;1278;22181;-72
2023/03/14 04:48:16;;;;;;;8.40;3.10;;;;;;;;;;110390;1278;22151;-72
2023/03/14 04:50:43;;;;;;;9.20;3.00;;;;;;;;;;110265;1278;22758;-72
2023/03/14 04:53:11;;;;;;;8.20;2.70;;;;;;;;;;110159;1278;22313;-73
2023/03/14 04:55:38;;;;;;;7.50;2.30;;;;;;;;;;110571;1260;22103;-72
2023/03/14 04:58:06;;;;;;;10.60;3.20;;;;;;;;;;110100;1279;22081;-72
2023/03/14 05:00:33;;;;;;;7.50;2.80;;;;;;;;;;110177;1279;22465;-72
2023/03/14 05:03:19;;;;;;;9.60;2.50;;;;;;;;;;110166;1279;22086;-73
2023/03/14 05:06:18;;;;;;;6.00;2.50;;;;;;;;;;110212;1259;22046;-71
2023/03/14 05:09:04;;;;;;;7.00;2.80;;;;;;;;;;110264;1278;22309;-72
2023/03/14 05:11:38;;;;;;;7.10;2.40;;;;;;;;;;110374;1278;22112;-72
2023/03/14 05:14:27;;;;;;;7.40;2.80;;;;;;;;;;110208;1256;22087;-72
2023/03/14 05:17:02;;;;;;;8.80;3.20;;;;;;;;;;110183;1279;22301;-72
2023/03/14 05:19:58;;;;;;;8.30;3.00;;;;;;;;;;110237;1279;22801;-72
2023/03/14 05:22:45;;;;;;;8.70;2.90;;;;;;;;;;110242;1279;22738;-71
2023/03/14 05:25:33;;;;;;;9.10;3.20;;;;;;;;;;110129;1262;22124;-75
2023/03/14 05:28:37;;;;;;;8.40;2.70;;;;;;;;;;110053;1282;22167;-72
2023/03/14 05:31:14;;;;;;;8.20;3.10;;;;;;;;;;109994;1282;22150;-72
2023/03/14 05:34:06;;;;;;;11.60;3.60;;;;;;;;;;109917;1282;22140;-72
2023/03/14 05:36:59;;;;;;;11.30;4.60;;;;;;;;;;109898;1268;22210;-72
2023/03/14 05:39:43;;;;;;;9.90;4.30;;;;;;;;;;110023;1282;22153;-72
2023/03/14 05:42:22;;;;;;;10.30;3.60;;;;;;;;;;110054;1282;23035;-72
2023/03/14 05:45:07;;;;;;;9.40;3.80;;;;;;;;;;109981;1260;22179;-72
2023/03/14 05:47:55;;;;;;;10.00;4.00;;;;;;;;;;109967;1283;22148;-72
2023/03/14 05:50:44;;;;;;;10.00;3.70;;;;;;;;;;109932;1284;22175;-72
2023/03/14 05:53:28;;;;;;;11.20;3.70;;;;;;;;;;109966;1283;22151;-72
2023/03/14 05:56:14;;;;;;;10.60;4.10;;;;;;;;;;110001;1264;22227;-72
2023/03/14 05:59:08;;;;;;;11.70;3.60;;;;;;;;;;110008;1280;22113;-72
2023/03/14 06:01:51;;;;;;;8.10;3.10;;;;;;;;;;110161;1280;22106;-72
2023/03/14 06:04:21;;;;;;;8.60;3.30;;;;;;;;;;110086;1280;22097;-72
2023/03/14 06:06:52;;;;;;;9.70;3.50;;;;;;;;;;110322;1259;22185;-72
2023/03/14 06:09:22;;;;;;;11.00;3.80;;;;;;;;;;110089;1280;23116;-72
2023/03/14 06:11:50;;;;;;;11.50;3.60;;;;;;;;;;110040;1280;22100;-71
2023/03/14 06:14:18;;;;;;;10.60;3.90;;;;;;;;;;110096;1280;22096;-72
2023/03/14 06:16:48;;;;;;;9.40;3.70;;;;;;;;;;110105;1259;22117;-71
2023/03/14 06:19:17;;;;;;;12.10;4.10;;;;;;;;;;110170;1279;22093;-72
2023/03/14 06:21:45;;;;;;;13.80;5.20;;;;;;;;;;110183;1280;22828;-71
2023/03/14 06:24:13;;;;;;;15.10;4.70;;;;;;;;;;110171;1280;22267;-72
2023/03/14 06:26:43;;;;;;;14.20;5.80;;;;;;;;;;110054;1263;22296;-73
2023/03/14 06:29:09;;;;;;;14.20;5.80;;;;;;;;;;110067;1280;22746;-71
2023/03/14 06:31:38;;;;;;;9.10;3.30;;;;;;;;;;110065;1280;22126;-72
2023/03/14 06:34:06;;;;;;;7.90;3.20;;;;;;;;;;110099;1280;22054;-72
2023/03/14 06:36:34;;;;;;;11.70;4.60;;;;;;;;;;110139;1263;22116;-72
2023/03/14 06:39:02;;;;;;;10.50;3.70;;;;;;;;;;110162;1280;22916;-73
2023/03/14 06:41:32;;;;;;;9.10;3.20;;;;;;;;;;110100;1280;22154;-72
2023/03/14 06:44:00;;;;;;;9.70;3.80;;;;;;;;;;110166;1280;22312;-72
2023/03/14 06:46:29;;;;;;;12.80;4.20;;;;;;;;;;110119;1259;22132;-72
2023/03/14 06:48:58;;;;;;;10.80;3.80;;;;;;;;;;110102;1281;22299;-71
2023/03/14 06:51:28;;;;;;;9.80;3.50;;;;;;;;;;110031;1281;22193;-74
2023/03/14 06:53:58;;;;;;;10.10;3.40;;;;;;;;;;110022;1281;22301;-73
2023/03/14 06:56:29;;;;;;;11.70;4.10;;;;;;;;;;110022;1256;22154;-72
2023/03/14 06:59:00;;;;;;;9.70;3.60;;;;;;;;;;110038;1280;22086;-73
2023/03/14 07:01:32;;;;;;;12.80;4.10;;;;;;;;;;110042;1280;22818;-73
2023/03/14 07:04:09;;;;;;;10.00;3.60;;;;;;;;;;110114;1280;22121;-73
2023/03/14 07:06:43;;;;;;;12.60;3.20;;;;;;;;;;110060;1259;22370;-72
2023/03/14 07:09:13;;;;;;;9.30;3.50;;;;;;;;;;110012;1273;22136;-72
2023/03/14 07:11:46;;;;;;;10.00;3.60;;;;;;;;;;110039;1281;22173;-73
2023/03/14 07:14:15;;;;;;;8.00;3.10;;;;;;;;;;110058;1281;22117;-72
2023/03/14 07:16:45;;;;;;;12.00;3.80;;;;;;;;;;110089;1281;22380;-73
2023/03/14 07:19:14;;;;;;;9.50;3.40;;;;;;;;;;110091;1262;22121;-72
2023/03/14 07:21:44;;;;;;;10.00;3.90;;;;;;;;;;110131;1280;22677;-72
2023/03/14 07:24:13;;;;;;;8.70;3.20;;;;;;;;;;110108;1278;22127;-72
2023/03/14 07:26:42;;;;;;;9.50;4.00;;;;;;;;;;110127;1280;22086;-82
2023/03/14 07:29:12;;;;;;;11.90;4.60;;;;;;;;;;110450;1263;22103;-72
2023/03/14 07:31:42;;;;;;;12.10;3.90;;;;;;;;;;110073;1281;22039;-72
2023/03/14 07:34:13;;;;;;;9.80;3.40;;;;;;;;;;110014;1281;22106;-72
2023/03/14 07:36:44;;;;;;;12.70;4.90;;;;;;;;;;110058;1281;22102;-73
2023/03/14 07:39:13;;;;;;;11.60;3.90;;;;;;;;;;110481;1262;22273;-73
2023/03/14 07:41:59;;;;;;;10.10;3.40;;;;;;;;;;110104;1280;22187;-72
2023/03/14 07:51:35;;;;;;;9.20;3.30;;;;;;;;;;103975;1311;544939;-77
2023/03/14 07:54:12;;;;;;;9.60;3.60;;;;;;;;;;106393;1285;22564;-72
2023/03/14 07:56:47;;;;;;;12.70;4.30;;;;;;;;;;106733;1279;24366;-77
2023/03/14 07:59:34;;;;;;;12.20;4.20;;;;;;;;;;106809;1279;24361;-75
2023/03/14 08:02:09;;;;;;;9.90;3.70;;;;;;;;;;106463;1266;22707;-79
2023/03/14 08:04:36;;;;;;;8.60;3.50;;;;;;;;;;102679;1273;5380876;-74
2023/03/14 08:07:03;;;;;;;13.10;3.80;;;;;;;;;;106670;1275;22524;-75
2023/03/14 08:09:33;;;;;;;10.90;4.40;;;;;;;;;;106408;1273;24195;-74
2023/03/14 08:12:00;;;;;;;11.60;3.90;;;;;;;;;;106833;1257;22527;-73
2023/03/14 08:14:30;;;;;;;13.10;5.00;;;;;;;;;;107025;1272;22997;-77
2023/03/14 08:16:57;;;;;;;12.00;4.10;;;;;;;;;;106990;1267;22518;-75
2023/03/14 08:19:34;;;;;;;11.50;4.20;;;;;;;;;;106902;1267;22520;-73
2023/03/14 08:22:00;;;;;;;11.60;4.50;;;;;;;;;;107109;1268;22556;-74
2023/03/14 08:24:48;;;;;;;12.40;4.00;;;;;;;;;;107083;1270;24224;-75
2023/03/14 08:27:24;;;;;;;12.50;3.70;;;;;;;;;;106910;1276;25268;-79
2023/03/14 08:29:58;;;;;;;8.90;3.60;;;;;;;;;;106958;1272;24367;-74
2023/03/14 08:32:25;;;;;;;9.40;3.20;;;;;;;;;;106979;1257;25319;-77
2023/03/14 08:35:05;;;;;;;12.90;3.90;;;;;;;;;;106971;1272;22614;-74
2023/03/14 08:37:48;;;;;;;13.80;6.10;;;;;;;;;;107044;1267;25392;-72
2023/03/14 08:40:16;;;;;;;14.20;5.70;;;;;;;;;;107155;1273;25213;-78
2023/03/14 08:43:07;;;;;;;12.70;4.70;;;;;;;;;;106946;1269;24299;-76
2023/03/14 08:45:34;;;;;;;11.20;4.30;;;;;;;;;;106907;1275;24348;-76
2023/03/14 08:48:21;;;;;;;10.00;4.30;;;;;;;;;;106855;1270;22523;-80
2023/03/14 08:50:48;;;;;;;12.20;4.80;;;;;;;;;;106805;1278;25321;-77
2023/03/14 08:53:22;;;;;;;9.90;3.90;;;;;;;;;;106871;1259;22536;-73
2023/03/14 08:55:54;;;;;;;11.80;3.80;;;;;;;;;;106822;1269;22520;-74
2023/03/14 08:58:23;;;;;;;10.30;3.70;;;;;;;;;;106831;1275;25387;-73
2023/03/14 09:00:50;;;;;;;10.80;4.60;;;;;;;;;;106654;1270;25439;-72
2023/03/14 09:03:28;;;;;;;10.50;3.90;;;;;;;;;;106645;1259;24204;-76
2023/03/14 09:05:55;;;;;;;10.10;3.80;;;;;;;;;;106703;1272;22479;-73
2023/03/14 09:08:25;;;;;;;9.70;3.60;;;;;;;;;;106753;1273;22528;-79
2023/03/14 09:11:22;;;;;;;;;;;;;;;;;;;;;
2023/03/14 09:13:49;;;;;;;10.40;3.60;;;;;;;;;;106759;1260;25220;-77
2023/03/14 09:16:58;;;;;;;9.80;3.60;;;;;;;;;;106826;1272;25262;-76
2023/03/14 09:19:44;;;;;;;12.70;3.80;;;;;;;;;;106860;1265;22523;-76
2023/03/14 09:22:11;;;;;;;12.90;4.50;;;;;;;;;;106858;1254;24220;-73
2023/03/14 09:24:40;;;;;;;15.10;4.80;;;;;;;;;;106875;1270;25356;-75
2023/03/14 09:27:08;;;;;;;16.20;5.20;;;;;;;;;;106887;1270;22538;-74
2023/03/14 09:29:37;;;;;;;12.50;4.60;;;;;;;;;;106904;1275;22990;-76
2023/03/14 09:32:04;;;;;;;9.30;3.60;;;;;;;;;;106836;1274;25172;-73
2023/03/14 09:34:32;;;;;;;9.90;3.40;;;;;;;;;;106662;1262;26470;-73
2023/03/14 09:37:02;;;;;;;12.00;4.10;;;;;;;;;;106745;1275;24228;-75
2023/03/14 09:42:55;;;;;;;11.90;5.20;;;;;;;;;;106965;1256;25269;-75
2023/03/14 09:45:45;;;;;;;15.60;5.90;;;;;;;;;;106971;1275;22527;-75
2023/03/14 09:48:22;;;;;;;10.10;4.10;;;;;;;;;;107035;1275;25315;-75
2023/03/14 09:51:27;;;;;;;;;;;;;;;;;;;;;
2023/03/14 09:54:05;;;;;;;12.60;5.00;;;;;;;;;;107781;1257;25034;-74
2023/03/14 09:56:43;;;;;;;10.50;4.60;;;;;;;;;;107037;1275;25472;-74
2023/03/14 09:59:38;;;;;;;12.40;5.10;;;;;;;;;;108687;1275;24218;-75
2023/03/14 10:02:31;;;;;;;13.20;5.40;;;;;;;;;;107097;1275;25337;-73
2023/03/14 10:05:01;;;;;;;16.70;4.90;;;;;;;;;;107160;1250;22520;-76
2023/03/14 10:08:01;;;;;;;14.40;5.40;;;;;;;;;;107156;1274;25501;-74
2023/03/14 10:10:27;;;;;;;13.10;4.60;;;;;;;;;;107184;1274;24249;-79
2023/03/14 10:13:15;;;;;;;11.50;4.50;;;;;;;;;;107219;1274;22543;-74
2023/03/14 10:16:06;;;;;;;11.40;4.10;;;;;;;;;;106873;1260;22623;-74
2023/03/14 10:18:43;;;;;;;12.90;4.20;;;;;;;;;;106874;1275;22575;-76
2023/03/14 10:21:50;;;;;;;12.20;4.30;;;;;;;;;;107116;1260;22535;-76
2023/03/14 10:24:38;;;;;;;12.70;4.10;;;;;;;;;;106993;1262;25271;-77
2023/03/14 10:27:20;;;;;;;15.10;4.60;;;;;;;;;;107019;1274;24210;-76
2023/03/14 10:30:14;;;;;;;12.50;4.60;;;;;;;;;;107030;1263;24190;-74
2023/03/14 10:32:53;;;;;;;19.80;7.30;;;;;;;;;;107004;1274;25258;-73
2023/03/14 10:35:25;;;;;;;16.10;5.70;;;;;;;;;;106941;1256;25337;-74
2023/03/14 10:38:00;;;;;;;11.30;4.10;;;;;;;;;;106967;1275;24361;-77
2023/03/14 10:40:41;;;;;;;10.70;3.90;;;;;;;;;;106949;1275;25274;-77
2023/03/14 10:43:49;;;;;;;11.40;4.30;;;;;;;;;;106979;1275;25333;-77
2023/03/14 10:46:19;;;;;;;10.60;3.80;;;;;;;;;;106692;1274;23895;-75
2023/03/14 10:59:41;;;;;;;9.30;3.90;;;;;;;;;;103750;1311;544873;-74
2023/03/14 11:02:24;;;;;;;10.70;3.70;;;;;;;;;;106139;1287;22539;-73
2023/03/14 11:05:31;;;;;;;12.70;4.10;;;;;;;;;;106205;1283;24307;-73
2023/03/14 11:08:02;;;;;;;13.60;4.80;;;;;;;;;;105943;1277;22485;-73
2023/03/14 11:10:34;;;;;;;11.70;4.10;;;;;;;;;;106186;1270;25434;-74
2023/03/14 11:13:02;;;;;;;12.00;4.10;;;;;;;;;;104423;1284;2594641;-72
2023/03/14 11:15:35;;;;;;;13.70;4.20;;;;;;;;;;106382;1285;22523;-77
2023/03/14 11:18:07;;;;;;;10.20;3.60;;;;;;;;;;106374;1284;25366;-75
2023/03/14 11:20:43;;;;;;;7.70;3.10;;;;;;;;;;106350;1262;22528;-79
2023/03/14 11:23:16;;;;;;;8.90;3.10;;;;;;;;;;106388;1284;24342;-77
2023/03/14 11:25:55;;;;;;;9.10;3.30;;;;;;;;;;106384;1284;25290;-78
2023/03/14 11:28:29;;;;;;;12.50;3.10;;;;;;;;;;106375;1284;22548;-77
2023/03/14 11:31:02;;;;;;;10.70;3.00;;;;;;;;;;106581;1276;23117;-80
2023/03/14 11:33:37;;;;;;;9.90;3.10;;;;;;;;;;106393;1284;22575;-74
2023/03/14 11:36:12;;;;;;;9.00;2.50;;;;;;;;;;106399;1284;22676;-73
2023/03/14 11:38:39;;;;;;;9.20;3.40;;;;;;;;;;106324;1285;22546;-76
2023/03/14 11:41:10;;;;;;;9.80;3.30;;;;;;;;;;106371;1262;25356;-75
2023/03/14 11:43:42;;;;;;;8.90;3.10;;;;;;;;;;106396;1285;22546;-76
2023/03/14 11:46:12;;;;;;;8.80;3.40;;;;;;;;;;106417;1285;24196;-75
2023/03/14 11:48:42;;;;;;;11.00;3.80;;;;;;;;;;106405;1285;25290;-77
2023/03/14 11:51:20;;;;;;;13.10;3.90;;;;;;;;;;106398;1285;24304;-76
2023/03/14 11:54:19;;;;;;;10.50;3.10;;;;;;;;;;106378;1285;22638;-80
2023/03/14 11:56:49;;;;;;;8.50;3.20;;;;;;;;;;105924;1290;23756;-73
2023/03/14 11:59:24;;;;;;;10.40;3.40;;;;;;;;;;105896;1290;24235;-74
2023/03/14 12:02:03;;;;;;;10.70;3.20;;;;;;;;;;105592;1286;22559;-77
2023/03/14 12:04:50;;;;;;;10.10;2.80;;;;;;;;;;105606;1290;22539;-77
2023/03/14 12:07:28;;;;;;;8.00;3.30;;;;;;;;;;105872;1290;22561;-73
2023/03/14 12:09:56;;;;;;;10.80;3.20;;;;;;;;;;105947;1267;23911;-77
2023/03/14 12:12:24;;;;;;;11.30;3.10;;;;;;;;;;105934;1290;24255;-79
2023/03/14 12:14:55;;;;;;;8.60;3.20;;;;;;;;;;105768;1290;23154;-76
2023/03/14 12:17:24;;;;;;;10.00;3.40;;;;;;;;;;105928;1290;26570;-77
2023/03/14 12:20:01;;;;;;;7.90;2.80;;;;;;;;;;105936;1268;22673;-74
2023/03/14 12:22:32;;;;;;;9.40;3.00;;;;;;;;;;105823;1290;22641;-75
2023/03/14 12:25:01;;;;;;;12.00;3.30;;;;;;;;;;105886;1290;25418;-74
2023/03/14 12:27:44;;;;;;;8.90;2.60;;;;;;;;;;105987;1290;22547;-75
2023/03/14 12:30:37;;;;;;;9.80;2.90;;;;;;;;;;105898;1267;22549;-73
2023/03/14 12:33:10;;;;;;;8.70;2.90;;;;;;;;;;106185;1285;24238;-76
2023/03/14 12:35:36;;;;;;;9.40;3.00;;;;;;;;;;106336;1285;24274;-80
2023/03/14 12:38:06;;;;;;;10.90;3.10;;;;;;;;;;106388;1285;22548;-77
2023/03/14 12:40:35;;;;;;;12.20;2.90;;;;;;;;;;106411;1285;23086;-74
2023/03/14 12:43:03;;;;;;;8.60;2.90;;;;;;;;;;106492;1286;24241;-75
2023/03/14 12:45:38;;;;;;;7.80;2.40;;;;;;;;;;106311;1284;24231;-76
2023/03/14 12:48:19;;;;;;;12.00;3.50;;;;;;;;;;106143;1284;22546;-75
2023/03/14 12:50:53;;;;;;;13.10;3.20;;;;;;;;;;106102;1263;24349;-76
2023/03/14 12:53:29;;;;;;;10.00;3.00;;;;;;;;;;106385;1279;22531;-77
2023/03/14 12:56:02;;;;;;;10.90;2.70;;;;;;;;;;106365;1279;22534;-74
2023/03/14 12:58:32;;;;;;;9.20;2.60;;;;;;;;;;106392;1278;22540;-74
2023/03/14 13:01:01;;;;;;;8.20;2.60;;;;;;;;;;106259;1263;22526;-73
2023/03/14 13:03:44;;;;;;;8.90;2.90;;;;;;;;;;106365;1282;22548;-73
2023/03/14 13:06:12;;;;;;;13.50;3.80;;;;;;;;;;106109;1283;24912;-73
2023/03/14 13:08:43;;;;;;;9.00;2.80;;;;;;;;;;106155;1279;24359;-74
2023/03/14 13:11:19;;;;;;;6.40;2.10;;;;;;;;;;106125;1263;22552;-76
2023/03/14 13:13:55;;;;;;;9.00;2.50;;;;;;;;;;105902;1281;22556;-76
2023/03/14 13:16:22;;;;;;;8.50;2.30;;;;;;;;;;106318;1287;25302;-73
2023/03/14 13:19:00;;;;;;;7.30;2.10;;;;;;;;;;106320;1286;22534;-73
2023/03/14 13:21:27;;;;;;;11.10;2.60;;;;;;;;;;106231;1270;22531;-78
2023/03/14 13:23:56;;;;;;;10.30;2.60;;;;;;;;;;106311;1287;25271;-76
2023/03/14 13:26:24;;;;;;;10.30;3.00;;;;;;;;;;106325;1287;25282;-72
2023/03/14 13:28:51;;;;;;;10.20;3.50;;;;;;;;;;106297;1286;22544;-77
2023/03/14 13:31:27;;;;;;;12.10;3.30;;;;;;;;;;106461;1271;22543;-76
2023/03/14 13:34:02;;;;;;;10.60;2.20;;;;;;;;;;106367;1282;22606;-72
2023/03/14 13:36:28;;;;;;;7.20;2.40;;;;;;;;;;106419;1282;24441;-81
2023/03/14 13:38:59;;;;;;;13.40;3.60;;;;;;;;;;106461;1282;22543;-74
2023/03/14 13:41:29;;;;;;;10.30;3.40;;;;;;;;;;106468;1261;23133;-74
2023/03/14 13:44:07;;;;;;;12.40;4.00;;;;;;;;;;106412;1282;22625;-77
2023/03/14 13:46:38;;;;;;;10.40;2.40;;;;;;;;;;106461;1282;24353;-78
2023/03/14 13:49:06;;;;;;;10.70;2.10;;;;;;;;;;106485;1282;22536;-80
2023/03/14 13:51:33;;;;;;;8.90;2.40;;;;;;;;;;106443;1282;27472;-73
2023/03/14 13:54:03;;;;;;;10.10;2.30;;;;;;;;;;106477;1282;25243;-75
2023/03/14 13:56:33;;;;;;;8.30;2.40;;;;;;;;;;106425;1282;24230;-75
2023/03/14 13:59:20;;;;;;;9.10;2.40;;;;;;;;;;106476;1282;24263;-76
2023/03/14 14:01:58;;;;;;;8.70;2.30;;;;;;;;;;106938;1270;22544;-74
2023/03/14 14:04:26;;;;;;;9.90;2.20;;;;;;;;;;106852;1255;25445;-77
2023/03/14 14:06:58;;;;;;;10.10;2.00;;;;;;;;;;106832;1270;22565;-75
2023/03/14 14:09:28;;;;;;;5.80;1.60;;;;;;;;;;106872;1270;22762;-77
2023/03/14 14:11:56;;;;;;;9.70;2.10;;;;;;;;;;106831;1272;24073;-77
2023/03/14 14:14:37;;;;;;;7.50;1.80;;;;;;;;;;107156;1256;22583;-73
2023/03/14 14:17:07;;;;;;;8.50;2.00;;;;;;;;;;106818;1270;24262;-78
2023/03/14 14:19:34;;;;;;;12.00;3.30;;;;;;;;;;106849;1270;22521;-75
2023/03/14 14:22:02;;;;;;;8.00;2.50;;;;;;;;;;106838;1270;22540;-73
2023/03/14 14:24:33;;;;;;;9.00;2.00;;;;;;;;;;106629;1270;22524;-73
2023/03/14 14:27:09;;;;;;;9.70;2.50;;;;;;;;;;106792;1270;25360;-76
2023/03/14 14:29:56;;;;;;;6.70;2.20;;;;;;;;;;106868;1270;22524;-75
2023/03/14 14:32:24;;;;;;;8.30;2.10;;;;;;;;;;106782;1273;22498;-73
2023/03/14 14:34:58;;;;;;;9.60;1.70;;;;;;;;;;106767;1256;24222;-75
2023/03/14 14:37:29;;;;;;;11.40;2.80;;;;;;;;;;106803;1278;25117;-74
2023/03/14 14:39:59;;;;;;;8.00;1.90;;;;;;;;;;106784;1257;22549;-79
2023/03/14 14:42:31;;;;;;;9.50;2.20;;;;;;;;;;106813;1278;23902;-73
2023/03/14 14:44:59;;;;;;;8.20;2.00;;;;;;;;;;106740;1261;22544;-79
2023/03/14 14:47:27;;;;;;;7.00;1.80;;;;;;;;;;106706;1278;25415;-75
2023/03/14 14:49:58;;;;;;;7.20;1.50;;;;;;;;;;106743;1278;23899;-75
2023/03/14 14:52:41;;;;;;;8.10;2.20;;;;;;;;;;106759;1278;23115;-76
2023/03/14 14:55:12;;;;;;;8.70;1.90;;;;;;;;;;106807;1258;25291;-75
2023/03/14 14:57:40;;;;;;;12.80;2.60;;;;;;;;;;106818;1278;25229;-74
2023/03/14 15:00:17;;;;;;;9.10;2.80;;;;;;;;;;106777;1278;25545;-74
2023/03/14 15:02:52;;;;;;;10.60;2.30;;;;;;;;;;106842;1278;24294;-74
2023/03/14 15:05:21;;;;;;;7.60;2.30;;;;;;;;;;106838;1278;22529;-75
2023/03/14 15:07:51;;;;;;;7.90;2.30;;;;;;;;;;106776;1278;25217;-78
2023/03/14 15:10:20;;;;;;;8.60;2.20;;;;;;;;;;106853;1278;22523;-79
2023/03/14 15:12:47;;;;;;;11.00;3.30;;;;;;;;;;106823;1278;23054;-76
2023/03/14 15:15:15;;;;;;;19.70;8.10;;;;;;;;;;106704;1261;24353;-79
2023/03/14 15:17:42;;;;;;;8.60;2.80;;;;;;;;;;106747;1279;22994;-77
2023/03/14 15:20:13;;;;;;;9.50;2.70;;;;;;;;;;106738;1279;22657;-76